Flight Track Log - Related Links

Times and Time Zones

All times are in EDT time to prevent confusion due to time zone crossing. See the SKW5564 flight status page for this flight to view local times or setup timezone preferences in your user account.

Time Position Orientation Groundspeed Altitude Reporting Facility
EDT Latitude Longitude Course Direction KTS MPH feet Rate Location/Type
Fri 06:55:00 PM 33.7721 -84.7501 297° West  Level Estimated
Fri 06:56:00 PM 33.8171 -84.8578 297° West  Level Estimated
Fri 06:57:00 PM 33.8619 -84.9655 297° West  Level Estimated
Fri 06:58:00 PM 33.9067 -85.0734 297° West  Level Estimated
Fri 06:59:00 PM 33.9514 -85.1814 297° West  Level Estimated
Fri 07:00:00 PM 33.9960 -85.2895 296° West  Level Estimated
Fri 07:01:00 PM 34.0405 -85.3977 296° West  Level Estimated
Fri 07:02:00 PM 34.0849 -85.5060 296° West  Level Estimated
Fri 07:03:00 PM 34.1292 -85.6144 296° West  Level Estimated
Fri 07:04:00 PM 34.1734 -85.7230 296° West  Level Estimated
Fri 07:05:00 PM 34.2174 -85.8316 296° West  Level Estimated
Fri 07:06:00 PM 34.2615 -85.9404 296° West  Level Estimated
Fri 07:07:00 PM 34.3054 -86.0493 296° West  Level Estimated
Fri 07:08:00 PM 34.3492 -86.1583 296° West  Level Estimated
Fri 07:09:00 PM 34.3929 -86.2674 296° West  Level Estimated
Fri 07:10:00 PM 34.4365 -86.3767 296° West  Level Estimated
Fri 07:11:00 PM 34.4800 -86.4860 296° West  Level Estimated
Fri 07:12:00 PM 34.5235 -86.5955 296° West  Level Estimated
Fri 07:13:00 PM 34.5668 -86.7051 296° West  Level Estimated
Fri 07:14:00 PM 34.6100 -86.8148 296° West  Level Estimated
Fri 07:15:00 PM 34.6532 -86.9246 296° West  Level Estimated
Fri 07:16:00 PM 34.6962 -87.0345 295° West  Level Estimated
Fri 07:17:00 PM 34.7391 -87.1445 295° West  Level Estimated
Fri 07:18:00 PM 34.7820 -87.2547 295° West  Level Estimated
Fri 07:19:00 PM 34.8247 -87.3649 295° West  Level Estimated
Fri 07:20:00 PM 34.8674 -87.4753 295° West  Level Estimated
Fri 07:21:00 PM 34.9099 -87.5858 295° West  Level Estimated
Fri 07:22:00 PM 34.9523 -87.6964 295° West  Level Estimated
Fri 07:23:00 PM 34.9947 -87.8071 295° West  Level Estimated
Fri 07:24:00 PM 35.0369 -87.9179 295° West  Level Estimated
Fri 07:25:00 PM 35.0791 -88.0289 295° West  Level Estimated
Fri 07:26:00 PM 35.1211 -88.1400 295° West  Level Estimated
Fri 07:27:00 PM 35.1630 -88.2511 295° West  Level Estimated
Fri 07:28:00 PM 35.2049 -88.3624 295° West  Level Estimated
Fri 07:29:00 PM 35.2466 -88.4738 295° West  Level Estimated
Fri 07:30:00 PM 35.2882 -88.5854 295° West  Level Estimated
Fri 07:31:00 PM 35.3298 -88.6970 295° West  Level Estimated
Fri 07:32:00 PM 35.3712 -88.8087 294° West  Level Estimated
Fri 07:33:00 PM 35.4125 -88.9206 294° West  Level Estimated
Fri 07:34:00 PM 35.4537 -89.0326 294° West  Level Estimated
Fri 07:35:00 PM 35.4948 -89.1447 294° West  Level Estimated
Fri 07:36:00 PM 35.5358 -89.2569 294° West  Level Estimated
Fri 07:37:00 PM 35.5767 -89.3692 294° West  Level Estimated
Fri 07:38:00 PM 35.6175 -89.4816 294° West  Level Estimated
Fri 07:39:00 PM 35.6582 -89.5942 294° West  Level Estimated
Fri 07:40:00 PM 35.6988 -89.7069 294° West  Level Estimated
Fri 07:41:00 PM 35.7393 -89.8196 294° West  Level Estimated
Fri 07:42:00 PM 35.7797 -89.9325 294° West  Level Estimated
Fri 07:43:00 PM 35.8200 -90.0455 294° West  Level Estimated
Fri 07:44:00 PM 35.8601 -90.1587 294° West  Level Estimated
Fri 07:45:00 PM 35.9002 -90.2719 294° West  Level Estimated
Fri 07:46:00 PM 35.9402 -90.3853 294° West  Level Estimated
Fri 07:47:00 PM 35.9800 -90.4987 293° West  Level Estimated
Fri 07:48:00 PM 36.0198 -90.6123 293° West  Level Estimated
Fri 07:49:00 PM 36.0594 -90.7260 293° West  Level Estimated
Fri 07:50:00 PM 36.0989 -90.8398 293° West  Level Estimated
Fri 07:51:00 PM 36.1384 -90.9538 293° West  Level Estimated
Fri 07:52:00 PM 36.1777 -91.0678 293° West  Level Estimated
Fri 07:53:00 PM 36.2169 -91.1820 293° West  Level Estimated
Fri 07:54:00 PM 36.2560 -91.2962 293° West  Level Estimated
Fri 07:55:00 PM 36.2949 -91.4106 293° West  Level Estimated
Fri 07:56:00 PM 36.3338 -91.5251 293° West  Level Estimated
Fri 07:57:00 PM 36.3726 -91.6397 293° West  Level Estimated
Fri 07:58:00 PM 36.4113 -91.7544 293° West  Level Estimated
Fri 07:59:00 PM 36.4498 -91.8693 293° West  Level Estimated
Fri 08:00:00 PM 36.4883 -91.9842 293° West  Level Estimated
Fri 08:01:00 PM 36.5266 -92.0993 293° West  Level Estimated
Fri 08:02:00 PM 36.5648 -92.2145 292° West  Level Estimated
Fri 08:03:00 PM 36.6029 -92.3298 292° West  Level Estimated
Fri 08:04:00 PM 36.6409 -92.4452 292° West  Level Estimated
Fri 08:05:00 PM 36.6788 -92.5607 292° West  Level Estimated
Fri 08:06:00 PM 36.7166 -92.6764 292° West  Level Estimated
Fri 08:07:00 PM 36.7542 -92.7921 292° West  Level Estimated
Fri 08:08:00 PM 36.7918 -92.9080 292° West  Level Estimated
Fri 08:09:00 PM 36.8292 -93.0239 292° West  Level Estimated
Fri 08:10:00 PM 36.8665 -93.1400 292° West  Level Estimated
Fri 08:11:00 PM 36.9037 -93.2562 292° West  Level Estimated
Fri 08:12:00 PM 36.9408 -93.3726 292° West  Level Estimated
Fri 08:13:00 PM 36.9778 -93.4890 292° West  Level Estimated
Fri 08:14:00 PM 37.0147 -93.6055 292° West  Level Estimated
Fri 08:15:00 PM 37.0514 -93.7222 292° West  Level Estimated
Fri 08:16:00 PM 37.0881 -93.8390 292° West  Level Estimated
Fri 08:17:00 PM 37.1246 -93.9558 291° West  Level Estimated
Fri 08:18:00 PM 37.1610 -94.0728 291° West  Level Estimated
Fri 08:19:00 PM 37.1973 -94.1899 291° West  Level Estimated
Fri 08:20:00 PM 37.2335 -94.3072 291° West  Level Estimated
Fri 08:21:00 PM 37.2696 -94.4245 291° West  Level Estimated
Fri 08:22:00 PM 37.3055 -94.5419 291° West  Level Estimated
Fri 08:23:00 PM 37.3414 -94.6595 291° West  Level Estimated
Fri 08:24:00 PM 37.3771 -94.7772 291° West  Level Estimated
Fri 08:25:00 PM 37.4127 -94.8950 291° West  Level Estimated
Fri 08:26:00 PM 37.4482 -95.0128 291° West  Level Estimated
Fri 08:27:00 PM 37.4835 -95.1309 291° West  Level Estimated
Fri 08:28:00 PM 37.5188 -95.2490 291° West  Level Estimated
Fri 08:29:00 PM 37.5539 -95.3672 291° West  Level Estimated
Fri 08:30:00 PM 37.5889 -95.4855 291° West  Level Estimated
Fri 08:31:00 PM 37.6238 -95.6040 290° West  Level Estimated
Fri 08:32:00 PM 37.6586 -95.7226 290° West  Level Estimated
Fri 08:33:00 PM 37.6933 -95.8412 290° West  Level Estimated
Fri 08:34:00 PM 37.7278 -95.9600 290° West  Level Estimated
Fri 08:35:00 PM 37.7622 -96.0789 290° West  Level Estimated
Fri 08:36:00 PM 37.7965 -96.1979 290° West  Level Estimated
Fri 08:37:00 PM 37.8307 -96.3170 290° West  Level Estimated
Fri 08:38:00 PM 37.8648 -96.4362 290° West  Level Estimated
Fri 08:39:00 PM 37.8987 -96.5556 290° West  Level Estimated
Fri 08:40:00 PM 37.9325 -96.6750 290° West  Level Estimated
Fri 08:41:00 PM 37.9662 -96.7946 290° West  Level Estimated
Fri 08:42:00 PM 37.9998 -96.9143 290° West  Level Estimated
Fri 08:43:00 PM 38.0333 -97.0340 290° West  Level Estimated
Fri 08:44:00 PM 38.0666 -97.1539 289° West  Level Estimated
Fri 08:45:00 PM 38.0998 -97.2739 289° West  Level Estimated
Fri 08:46:00 PM 38.1329 -97.3940 289° West  Level Estimated
Fri 08:47:00 PM 38.1659 -97.5142 289° West  Level Estimated
Fri 08:48:00 PM 38.1987 -97.6345 289° West  Level Estimated
Fri 08:49:00 PM 38.2314 -97.7550 289° West  Level Estimated
Fri 08:50:00 PM 38.2640 -97.8755 289° West  Level Estimated
Fri 08:51:00 PM 38.2965 -97.9961 289° West  Level Estimated
Fri 08:52:00 PM 38.3289 -98.1169 289° West  Level Estimated
Fri 08:53:00 PM 38.3611 -98.2377 289° West  Level Estimated
Fri 08:54:00 PM 38.3932 -98.3587 289° West  Level Estimated
Fri 08:55:00 PM 38.4252 -98.4798 289° West  Level Estimated
Fri 08:56:00 PM 38.4570 -98.6010 289° West  Level Estimated
Fri 08:57:00 PM 38.4888 -98.7223 289° West  Level Estimated
Fri 08:58:00 PM 38.5204 -98.8437 288° West  Level Estimated
Fri 08:59:00 PM 38.5518 -98.9651 288° West  Level Estimated
Fri 09:00:00 PM 38.5832 -99.0868 288° West  Level Estimated
Fri 09:01:00 PM 38.6144 -99.2085 288° West  Level Estimated
Fri 09:02:00 PM 38.6455 -99.3303 288° West  Level Estimated
Fri 09:03:00 PM 38.6765 -99.4522 288° West  Level Estimated
Fri 09:04:00 PM 38.7073 -99.5742 288° West  Level Estimated
Fri 09:05:00 PM 38.7381 -99.6964 288° West  Level Estimated
Fri 09:06:00 PM 38.7687 -99.8186 288° West  Level Estimated
Fri 09:07:00 PM 38.7991 -99.9409 288° West  Level Estimated
Fri 09:08:00 PM 38.8295 -100.0634 288° West  Level Estimated
Fri 09:09:00 PM 38.8597 -100.1860 288° West  Level Estimated
Fri 09:10:00 PM 38.8898 -100.3086 288° West  Level Estimated
Fri 09:11:00 PM 38.9197 -100.4314 287° West  Level Estimated
Fri 09:12:00 PM 38.9495 -100.5542 287° West  Level Estimated
Fri 09:13:00 PM 38.9792 -100.6772 287° West  Level Estimated
Fri 09:14:00 PM 39.0088 -100.8003 287° West  Level Estimated
Fri 09:15:00 PM 39.0382 -100.9234 287° West  Level Estimated
Fri 09:16:00 PM 39.0676 -101.0467 287° West  Level Estimated
Fri 09:17:00 PM 39.0967 -101.1701 287° West  Level Estimated
Fri 09:18:00 PM 39.1258 -101.2936 287° West  Level Estimated
Fri 09:19:00 PM 39.1547 -101.4172 287° West  Level Estimated
Fri 09:20:00 PM 39.1835 -101.5408 287° West  Level Estimated
Fri 09:21:00 PM 39.2122 -101.6646 287° West  Level Estimated
Fri 09:22:00 PM 39.2407 -101.7885 287° West  Level Estimated
Fri 09:23:00 PM 39.2691 -101.9125 287° West  Level Estimated
Fri 09:24:00 PM 39.2973 -102.0366 286° West  Level Estimated
Fri 09:25:00 PM 39.3255 -102.1608 286° West  Level Estimated
Fri 09:26:00 PM 39.3535 -102.2851 286° West  Level Estimated
Fri 09:27:00 PM 39.3813 -102.4094 286° West  Level Estimated
Fri 09:28:00 PM 39.4091 -102.5339 286° West  Level Estimated
Fri 09:29:00 PM 39.4367 -102.6585 286° West  Level Estimated
Fri 09:30:00 PM 39.4641 -102.7832 286° West  Level Estimated
Fri 09:31:00 PM 39.4915 -102.9080 286° West  Level Estimated
Fri 09:32:00 PM 39.5187 -103.0328 286° West  Level Estimated
Fri 09:33:00 PM 39.5457 -103.1578 286° West  Level Estimated
Fri 09:34:00 PM 39.5727 -103.2829 286° West  Level Estimated
Fri 09:35:00 PM 39.5995 -103.4081 286° West  Level Estimated
Fri 09:36:00 PM 39.6261 -103.5333 285° West  Level Estimated
Fri 09:37:00 PM 39.6527 -103.6587 285° West  Level Estimated
Fri 09:38:00 PM 39.6791 -103.7841 285° West  Level Estimated
Fri 09:39:00 PM 39.7053 -103.9097 285° West  Level Estimated
Fri 09:40:00 PM 39.7314 -104.0353 285° West  Level Estimated
Fri 09:41:00 PM 39.7574 -104.1611 285° West  Level Estimated
Fri 09:42:00 PM 39.7833 -104.2869 285° West  Level Estimated
Fri 09:43:00 PM 39.8090 -104.4128 285° West  Level Estimated
Fri 09:44:00 PM 39.8346 -104.5389 285° West  Level Estimated
Fri 09:45:00 PM 39.8600 -104.6650 285° West  Level Estimated
Fri 09:46:00 PM 39.8617 -104.6732 285° West  Level Estimated
Fri 09:47:00 PM 39.8617 -104.6732 142° Southeast  Level Estimated
Fri 09:48:00 PM 39.8617 -104.6732 142° Southeast  Level Estimated
Fri 09:49:00 PM 39.8617 -104.6732 142° Southeast  Level Estimated
Fri 09:50:00 PM 39.8617 -104.6732 142° Southeast  Level Estimated
Fri 09:51:00 PM 39.8617 -104.6732 142° Southeast  Level Estimated
Fri 09:52:00 PM 39.8617 -104.6732 142° Southeast  Level Estimated
Fri 09:53:00 PM 39.8617 -104.6732 142° Southeast  Level Estimated
Fri 09:54:00 PM 39.8617 -104.6732 142° Southeast  Level Estimated

Login

Don't have an account? Register now (free) for customized features, flight alerts, and more!